Main page
METAR-TAF:

METAR-TAF

Airports :

Oil platform

Hoorn-a, Netherlands

latitude: 52-55-05N, longitude: 4-09-01E, elevation: 41 m

Current weather observation

The report was made 34 minutes ago, at 23:55 UTC
Wind 3 kt from the West/Northwest
Temperature 6°C
Humidity 75%
Pressure 1024 hPa
Visibility 10 km or more

METAR: EHQE 182355Z AUTO 29003KT 9999 NSC 06/02 Q1024 W///H///

Time: 01:29 (00:29 UTC)


TAF: missing

Weather observations and forecasts of more than 4000 airports (METAR and TAF reports).

The available stations are represented by yellow and red dots on the map.

Hover mouse over dot to see the name of the station.

Then click to see weather observations and forecasts.

To change the map : click on the green buttons with a black cross to zoom in, on the green button with a dash to zoom out, or on the green arrows for adjacent maps.


METAR-TAF: